Floris, Iowa
Current Conditions -  °F | °C
As of 4:53 PM on Monday 20 Oct 2014 (Local Time) from KOTM Reporting Station
Light Rain Light Rain  
Wind Chill: 68°   Ceiling: Unl
Heat Index: 68°   Visibility: 10mi
Dew Point: 43°   Wind: 12mph
Humidity: 40%   Direction: 310°NW
Pressure: 29.98"   Gusts: NA
Location:  40.87°N, 92.33°W
Report Text: KOTM 202153Z AUTO 31010KT 10SM -RA CLR 20/06 A2998 RMK AO2 SLP152 P0000 T02000061
Loading
Personal Weather Stations






























Interactive Weather Map
Tropical Storm Tracking
New forecast layout! Learn more

10-Day Weather Forecast

Advertisements
Track Severe Weather on mobile